createdAt,value
2017-10-01T00:00:50.193Z,91.57
2017-10-01T00:03:16.547Z,91.53
2017-10-01T00:05:42.866Z,91.41
2017-10-01T00:08:09.831Z,91.32
2017-10-01T00:10:36.263Z,91.12
2017-10-01T00:13:02.492Z,90.70
2017-10-01T00:15:28.826Z,90.72
2017-10-01T00:17:55.461Z,90.98
2017-10-01T00:20:21.680Z,91.58
2017-10-01T00:22:47.907Z,91.81
2017-10-01T00:25:14.158Z,92.00
2017-10-01T00:27:40.392Z,92.20
2017-10-01T00:30:06.722Z,92.20
2017-10-01T00:32:33.039Z,92.48
2017-10-01T00:34:59.278Z,92.50
2017-10-01T00:37:25.599Z,92.48
2017-10-01T00:39:51.833Z,92.43
2017-10-01T00:42:18.467Z,92.32
2017-10-01T00:44:44.704Z,92.11
2017-10-01T00:47:11.056Z,92.18
2017-10-01T00:49:37.368Z,92.11
2017-10-01T00:52:03.750Z,92.14
2017-10-01T00:54:30.031Z,91.53
2017-10-01T00:56:56.398Z,91.46
2017-10-01T00:59:22.593Z,91.40
2017-10-01T01:01:48.913Z,91.46
2017-10-01T01:04:15.998Z,91.38
2017-10-01T01:06:42.311Z,91.15
2017-10-01T01:09:08.639Z,90.51
2017-10-01T01:11:34.978Z,90.16
2017-10-01T01:14:01.206Z,90.17
2017-10-01T01:16:27.846Z,89.90
2017-10-01T01:18:54.385Z,89.85
2017-10-01T01:21:20.711Z,90.09
2017-10-01T01:23:47.566Z,90.31
2017-10-01T01:26:13.991Z,90.25
2017-10-01T01:28:40.323Z,90.17
2017-10-01T01:31:06.550Z,90.14
2017-10-01T01:33:32.883Z,89.86
2017-10-01T01:35:59.202Z,89.31
2017-10-01T01:38:25.433Z,89.33
2017-10-01T01:40:51.766Z,89.47
2017-10-01T01:43:17.998Z,89.80
2017-10-01T01:45:44.341Z,89.99
2017-10-01T01:48:10.672Z,90.26
2017-10-01T01:50:36.904Z,89.98
2017-10-01T01:53:03.131Z,89.83
2017-10-01T01:55:29.684Z,89.75
2017-10-01T01:57:56.988Z,89.85
2017-10-01T02:00:23.256Z,90.24
2017-10-01T02:02:50.511Z,90.30
2017-10-01T02:05:16.842Z,90.43
2017-10-01T02:07:43.464Z,90.71
2017-10-01T02:10:09.812Z,90.70
2017-10-01T02:12:36.028Z,90.81
2017-10-01T02:15:02.281Z,90.92
2017-10-01T02:17:28.501Z,91.24
2017-10-01T02:19:54.934Z,91.14
2017-10-01T02:22:21.148Z,91.32
2017-10-01T02:24:47.384Z,90.89
2017-10-01T02:27:13.714Z,90.84
2017-10-01T02:29:39.955Z,90.87
2017-10-01T02:32:06.186Z,90.59
2017-10-01T02:34:32.420Z,90.45
2017-10-01T02:36:58.733Z,90.87
2017-10-01T02:39:24.978Z,90.93
2017-10-01T02:41:52.030Z,90.89
2017-10-01T02:44:18.358Z,91.19
2017-10-01T02:46:44.702Z,91.33
2017-10-01T02:49:10.935Z,91.13
2017-10-01T02:51:37.374Z,90.95
2017-10-01T02:54:03.692Z,90.99
2017-10-01T02:56:30.241Z,91.37
2017-10-01T02:58:56.859Z,91.15
2017-10-01T03:01:23.102Z,91.42
2017-10-01T03:03:49.532Z,91.53
2017-10-01T03:06:15.974Z,91.48
2017-10-01T03:08:42.718Z,91.10
2017-10-01T03:11:09.138Z,91.11
2017-10-01T03:13:35.368Z,91.28
2017-10-01T03:16:01.695Z,91.29
2017-10-01T03:18:28.042Z,91.37
2017-10-01T03:20:54.382Z,90.96
2017-10-01T03:23:20.927Z,91.05
2017-10-01T03:25:47.436Z,91.14
2017-10-01T03:28:13.673Z,90.83
2017-10-01T03:30:40.001Z,90.71
2017-10-01T03:33:06.329Z,90.59
2017-10-01T03:35:32.660Z,90.91
2017-10-01T03:37:58.996Z,91.10
2017-10-01T03:40:25.321Z,91.70
2017-10-01T03:42:51.668Z,91.90
2017-10-01T03:45:17.884Z,91.84
2017-10-01T03:47:44.121Z,92.08
2017-10-01T03:50:10.453Z,92.00
2017-10-01T03:52:36.970Z,92.02
2017-10-01T03:55:03.727Z,91.99
2017-10-01T03:57:30.064Z,91.74
2017-10-01T03:59:56.386Z,91.57
2017-10-01T04:02:22.730Z,91.69
2017-10-01T04:04:48.951Z,91.88
2017-10-01T04:07:15.400Z,91.88
2017-10-01T04:09:42.117Z,91.48
2017-10-01T04:12:08.350Z,90.77
2017-10-01T04:14:34.600Z,90.45
2017-10-01T04:17:01.223Z,91.00
2017-10-01T04:19:27.681Z,91.00
2017-10-01T04:21:54.394Z,90.67
2017-10-01T04:24:20.843Z,90.43
2017-10-01T04:26:47.175Z,90.18
2017-10-01T04:29:13.409Z,90.20
2017-10-01T04:31:39.727Z,90.10
2017-10-01T04:34:06.353Z,89.96
2017-10-01T04:36:32.590Z,90.14
2017-10-01T04:38:58.944Z,89.99
2017-10-01T04:41:25.153Z,90.29
2017-10-01T04:43:51.814Z,90.41
2017-10-01T04:46:18.144Z,90.10
2017-10-01T04:48:44.658Z,89.97
2017-10-01T04:51:10.905Z,89.70
2017-10-01T04:53:37.347Z,89.16
2017-10-01T04:56:03.966Z,89.30
2017-10-01T04:58:30.934Z,88.72
2017-10-01T05:00:57.361Z,88.13
2017-10-01T05:03:23.701Z,88.04
2017-10-01T05:05:50.336Z,88.02
2017-10-01T05:08:16.651Z,88.48
2017-10-01T05:10:42.989Z,88.17
2017-10-01T05:13:09.231Z,87.93
2017-10-01T05:15:35.759Z,87.71
2017-10-01T05:18:02.194Z,87.34
2017-10-01T05:20:28.423Z,87.26
2017-10-01T05:22:54.975Z,86.47
2017-10-01T05:25:21.189Z,85.42
2017-10-01T05:27:47.625Z,84.79
2017-10-01T05:30:14.072Z,84.51
2017-10-01T05:32:41.203Z,85.09
2017-10-01T05:35:07.448Z,84.40
2017-10-01T05:37:33.663Z,84.53
2017-10-01T05:40:00.006Z,84.02
2017-10-01T05:42:26.427Z,84.67
2017-10-01T05:44:52.982Z,84.61
2017-10-01T05:47:19.293Z,84.25
2017-10-01T05:49:45.636Z,84.08
2017-10-01T05:52:11.888Z,83.81
2017-10-01T05:54:38.300Z,83.68
2017-10-01T05:57:04.626Z,83.81
2017-10-01T05:59:31.053Z,84.52
2017-10-01T06:01:57.307Z,83.87
2017-10-01T06:04:23.637Z,83.68
2017-10-01T06:06:49.970Z,83.86
2017-10-01T06:09:16.912Z,83.52
2017-10-01T06:11:43.156Z,83.57
2017-10-01T06:14:09.571Z,83.21
2017-10-01T06:16:35.903Z,83.07
2017-10-01T06:19:02.257Z,83.64
2017-10-01T06:21:28.462Z,81.89
2017-10-01T06:23:54.716Z,80.63
2017-10-01T06:26:21.035Z,81.92
2017-10-01T06:28:47.559Z,81.10
2017-10-01T06:31:13.843Z,81.47
2017-10-01T06:33:40.257Z,81.56
2017-10-01T06:36:06.965Z,82.28
2017-10-01T06:38:33.313Z,81.10
2017-10-01T06:40:59.967Z,81.93
2017-10-01T06:43:26.425Z,79.95
2017-10-01T06:45:53.125Z,81.20
2017-10-01T06:48:19.474Z,81.83
2017-10-01T06:50:45.787Z,81.49
2017-10-01T06:53:12.116Z,81.40
2017-10-01T06:55:38.859Z,81.87
2017-10-01T06:58:07.549Z,81.81
2017-10-01T07:00:33.989Z,81.00
2017-10-01T07:03:00.342Z,82.19
2017-10-01T07:05:26.776Z,81.84
2017-10-01T07:07:53.181Z,80.23
2017-10-01T07:10:19.410Z,80.28
2017-10-01T07:12:45.753Z,79.93
2017-10-01T07:15:12.070Z,79.50
2017-10-01T07:17:38.513Z,79.94
2017-10-01T07:20:07.534Z,79.22
2017-10-01T07:22:33.920Z,79.68
2017-10-01T07:25:00.579Z,79.46
2017-10-01T07:27:27.135Z,79.29
2017-10-01T07:29:53.468Z,79.61
2017-10-01T07:32:20.020Z,81.11
2017-10-01T07:34:47.021Z,80.93
2017-10-01T07:37:13.785Z,80.75
2017-10-01T07:39:40.108Z,80.31
2017-10-01T07:42:06.679Z,81.05
2017-10-01T07:44:33.696Z,81.20
2017-10-01T07:47:00.238Z,81.05
2017-10-01T07:49:26.575Z,79.26
2017-10-01T07:51:53.214Z,76.50
2017-10-01T07:54:19.539Z,76.45
2017-10-01T07:56:45.881Z,75.44
2017-10-01T07:59:12.518Z,74.47
2017-10-01T08:01:38.887Z,74.24
2017-10-01T08:04:06.197Z,74.80
2017-10-01T08:06:33.055Z,74.21
2017-10-01T08:08:59.370Z,73.04
2017-10-01T08:11:25.936Z,72.36
2017-10-01T08:13:52.107Z,71.14
2017-10-01T08:16:18.389Z,71.07
2017-10-01T08:18:44.804Z,70.06
2017-10-01T08:21:11.139Z,68.52
2017-10-01T08:23:37.462Z,66.99
2017-10-01T08:26:03.803Z,70.72
2017-10-01T08:28:30.149Z,68.23
2017-10-01T08:30:56.886Z,68.92
2017-10-01T08:33:26.543Z,66.91
2017-10-01T08:35:52.912Z,66.51
2017-10-01T08:38:19.474Z,67.80
2017-10-01T08:40:45.695Z,65.46
2017-10-01T08:43:13.136Z,65.17
2017-10-01T08:45:39.485Z,63.84
2017-10-01T08:48:05.699Z,63.47
2017-10-01T08:50:32.649Z,63.37
2017-10-01T08:52:58.982Z,62.98
2017-10-01T08:55:27.639Z,62.58
2017-10-01T08:57:54.579Z,62.84
2017-10-01T09:00:21.056Z,60.30
2017-10-01T09:02:47.390Z,62.65
2017-10-01T09:05:14.011Z,61.73
2017-10-01T09:07:40.340Z,58.70
2017-10-01T09:10:06.710Z,58.68
2017-10-01T09:12:32.933Z,58.62
2017-10-01T09:14:59.902Z,58.04
2017-10-01T09:17:26.092Z,57.98
2017-10-01T09:19:52.436Z,57.52
2017-10-01T09:22:18.784Z,52.61
2017-10-01T09:24:45.204Z,51.68
2017-10-01T09:27:11.416Z,51.99
2017-10-01T09:29:37.868Z,53.39
2017-10-01T09:32:04.302Z,54.48
2017-10-01T09:34:30.633Z,52.30
2017-10-01T09:36:58.002Z,52.19
2017-10-01T09:39:24.734Z,51.93
2017-10-01T09:41:51.357Z,52.58
2017-10-01T09:44:17.670Z,51.37
2017-10-01T09:46:45.254Z,51.75
2017-10-01T09:49:11.781Z,48.52
2017-10-01T09:51:38.144Z,48.04
2017-10-01T09:54:05.091Z,50.10
2017-10-01T09:56:31.509Z,52.06
2017-10-01T09:58:58.143Z,51.48
2017-10-01T10:01:24.377Z,51.90
2017-10-01T10:03:50.923Z,50.83
2017-10-01T10:06:18.084Z,51.65
2017-10-01T10:08:44.397Z,51.37
2017-10-01T10:11:11.037Z,54.36
2017-10-01T10:13:37.568Z,52.18
2017-10-01T10:16:04.518Z,52.29
2017-10-01T10:18:30.985Z,54.33
2017-10-01T10:20:57.285Z,52.09
2017-10-01T10:23:24.249Z,53.64
2017-10-01T10:25:50.556Z,50.04
2017-10-01T10:28:16.873Z,51.65
2017-10-01T10:30:43.550Z,53.78
2017-10-01T10:33:09.870Z,55.08
2017-10-01T10:35:36.082Z,53.00
2017-10-01T10:38:02.424Z,51.22
2017-10-01T10:40:28.859Z,51.65
2017-10-01T10:42:55.603Z,49.32
2017-10-01T10:45:21.941Z,48.77
2017-10-01T10:47:55.056Z,46.78
2017-10-01T10:50:21.494Z,47.27
2017-10-01T10:52:48.500Z,47.98
2017-10-01T10:55:14.857Z,44.77
2017-10-01T10:57:42.804Z,44.41
2017-10-01T11:00:10.285Z,45.00
2017-10-01T11:02:36.558Z,45.06
2017-10-01T11:05:02.858Z,46.74
2017-10-01T11:07:39.870Z,45.07
2017-10-01T11:10:06.146Z,45.29
2017-10-01T11:12:32.701Z,47.02
2017-10-01T11:14:59.451Z,48.04
2017-10-01T11:17:26.473Z,46.68
2017-10-01T11:19:53.114Z,45.70
2017-10-01T11:22:20.878Z,45.18
2017-10-01T11:24:47.667Z,46.00
2017-10-01T11:27:13.968Z,47.06
2017-10-01T11:29:40.493Z,46.71
2017-10-01T11:32:07.338Z,48.05
2017-10-01T11:34:33.564Z,46.64
2017-10-01T11:36:59.993Z,46.30
2017-10-01T11:39:26.326Z,47.77
2017-10-01T11:41:52.714Z,47.45
2017-10-01T11:44:18.995Z,47.16
2017-10-01T11:46:45.557Z,45.97
2017-10-01T11:49:12.702Z,45.00
2017-10-01T11:51:39.038Z,44.05
2017-10-01T11:54:05.385Z,43.14
2017-10-01T11:56:32.104Z,43.07
2017-10-01T11:58:58.932Z,43.18
2017-10-01T12:01:25.289Z,45.50
2017-10-01T12:03:51.595Z,45.63
2017-10-01T12:06:17.922Z,46.84
2017-10-01T12:08:44.245Z,46.07
2017-10-01T12:11:10.578Z,46.11
2017-10-01T12:13:37.041Z,45.67
2017-10-01T12:16:04.595Z,43.97
2017-10-01T12:18:30.929Z,43.49
2017-10-01T12:20:57.252Z,43.08
2017-10-01T12:23:24.304Z,40.15
2017-10-01T12:25:51.775Z,38.52
2017-10-01T12:28:17.985Z,39.80
2017-10-01T12:30:44.329Z,40.22
2017-10-01T12:33:11.476Z,40.90
2017-10-01T12:35:37.906Z,41.61
2017-10-01T12:38:05.173Z,41.69
2017-10-01T12:40:32.107Z,43.50
2017-10-01T12:42:58.517Z,44.29
2017-10-01T12:45:24.869Z,45.06
2017-10-01T12:47:51.503Z,43.04
2017-10-01T12:50:18.463Z,42.87
2017-10-01T12:52:45.106Z,45.59
2017-10-01T12:55:11.944Z,43.68
2017-10-01T12:57:38.352Z,42.74
2017-10-01T13:00:05.439Z,41.90
2017-10-01T13:02:31.763Z,41.92
2017-10-01T13:04:58.103Z,41.53
2017-10-01T13:07:24.347Z,42.73
2017-10-01T13:09:51.793Z,42.08
2017-10-01T13:12:18.114Z,42.83
2017-10-01T13:14:45.483Z,42.09
2017-10-01T13:17:23.968Z,41.81
2017-10-01T13:19:50.302Z,41.16
2017-10-01T13:22:16.755Z,39.97
2017-10-01T13:24:43.085Z,42.37
2017-10-01T13:27:10.041Z,43.58
2017-10-01T13:29:36.634Z,41.39
2017-10-01T13:32:04.762Z,40.77
2017-10-01T13:34:33.331Z,39.58
2017-10-01T13:36:59.662Z,40.21
2017-10-01T13:39:26.001Z,41.21
2017-10-01T13:41:54.178Z,40.76
2017-10-01T13:44:21.332Z,40.86
2017-10-01T13:46:47.583Z,42.13
2017-10-01T13:49:13.976Z,41.62
2017-10-01T13:51:40.427Z,42.73
2017-10-01T13:54:06.672Z,44.10
2017-10-01T13:56:33.115Z,46.23
2017-10-01T13:58:59.886Z,47.91
2017-10-01T14:01:26.427Z,48.79
2017-10-01T14:03:52.703Z,50.75
2017-10-01T14:06:19.671Z,51.78
2017-10-01T14:08:48.457Z,52.76
2017-10-01T14:11:14.989Z,53.21
2017-10-01T14:13:42.336Z,54.17
2017-10-01T14:16:10.032Z,54.53
2017-10-01T14:18:38.128Z,54.03
2017-10-01T14:21:04.413Z,53.08
2017-10-01T14:23:30.752Z,53.69
2017-10-01T14:25:58.483Z,53.51
2017-10-01T14:28:24.895Z,54.54
2017-10-01T14:30:51.149Z,54.84
2017-10-01T14:33:18.054Z,56.48
2017-10-01T14:35:44.311Z,56.83
2017-10-01T14:38:10.541Z,57.07
2017-10-01T14:40:36.786Z,56.70
2017-10-01T14:43:03.141Z,57.33
2017-10-01T14:45:29.907Z,59.93
2017-10-01T14:47:56.212Z,59.88
2017-10-01T14:50:22.558Z,58.72
2017-10-01T14:52:49.064Z,58.20
2017-10-01T14:55:15.931Z,57.96
2017-10-01T14:57:42.231Z,58.62
2017-10-01T15:00:08.834Z,58.35
2017-10-01T15:02:35.388Z,59.24
2017-10-01T15:05:02.365Z,58.73
2017-10-01T15:07:29.009Z,57.41
2017-10-01T15:09:56.913Z,57.43
2017-10-01T15:12:23.237Z,58.77
2017-10-01T15:14:49.503Z,58.57
2017-10-01T15:17:18.064Z,59.45
2017-10-01T15:19:44.913Z,58.55
2017-10-01T15:22:11.215Z,58.44
2017-10-01T15:24:37.556Z,59.36
2017-10-01T15:27:03.939Z,59.72
2017-10-01T15:29:30.532Z,60.46
2017-10-01T15:31:57.204Z,58.17
2017-10-01T15:34:24.397Z,59.68
2017-10-01T15:36:51.442Z,60.39
2017-10-01T15:39:17.756Z,60.53
2017-10-01T15:41:43.979Z,60.60
2017-10-01T15:44:10.640Z,60.62
2017-10-01T15:46:36.972Z,60.51
2017-10-01T15:49:07.217Z,60.50
2017-10-01T15:51:33.513Z,61.15
2017-10-01T15:54:01.454Z,61.61
2017-10-01T15:56:27.783Z,61.86
2017-10-01T16:04:11.316Z,62.86
2017-10-01T16:06:37.877Z,63.90
2017-10-01T16:09:05.036Z,64.33
2017-10-01T16:11:31.670Z,64.56
2017-10-01T16:13:57.867Z,65.90
2017-10-01T16:16:30.569Z,67.03
2017-10-01T16:18:57.450Z,69.62
2017-10-01T16:21:25.429Z,70.95
2017-10-01T16:23:52.662Z,72.17
2017-10-01T16:26:31.880Z,73.64
2017-10-01T16:28:58.369Z,74.55
2017-10-01T16:31:25.144Z,75.52
2017-10-01T16:34:02.246Z,76.98
2017-10-01T16:36:28.540Z,77.78
2017-10-01T16:38:54.883Z,78.00
2017-10-01T16:41:22.183Z,78.59
2017-10-01T16:43:50.034Z,78.43
2017-10-01T16:46:16.920Z,78.15
2017-10-01T16:48:43.220Z,78.42
2017-10-01T16:51:09.609Z,78.66
2017-10-01T16:53:36.235Z,78.84
2017-10-01T16:56:06.232Z,79.27
2017-10-01T16:58:33.246Z,79.33
2017-10-01T17:00:59.557Z,79.54
2017-10-01T17:03:27.816Z,79.50
2017-10-01T17:05:55.861Z,79.35
2017-10-01T17:08:23.300Z,79.47
2017-10-01T17:10:49.703Z,80.36
2017-10-01T17:21:11.486Z,80.85
2017-10-01T17:31:35.184Z,81.63
2017-10-01T17:34:03.178Z,82.01
2017-10-01T17:36:31.272Z,82.34
2017-10-01T17:38:58.535Z,82.67
2017-10-01T17:41:24.958Z,82.56
2017-10-01T17:46:30.350Z,82.79
2017-10-01T17:48:58.789Z,83.18
2017-10-01T17:51:31.501Z,83.24
2017-10-01T17:53:58.091Z,83.53
2017-10-01T17:56:29.441Z,83.43
2017-10-01T17:58:55.795Z,83.96
2017-10-01T18:01:25.459Z,84.24
2017-10-01T18:03:52.879Z,85.34
2017-10-01T18:06:22.290Z,85.06
2017-10-01T18:08:53.137Z,84.94
2017-10-01T18:11:22.138Z,84.49
2017-10-01T18:13:49.359Z,84.25
2017-10-01T18:16:17.094Z,84.61
2017-10-01T18:18:43.444Z,84.92
2017-10-01T18:21:10.914Z,85.05
2017-10-01T18:23:39.430Z,85.16
2017-10-01T18:26:05.830Z,86.17
2017-10-01T18:28:32.564Z,86.34
2017-10-01T18:30:58.803Z,86.18
2017-10-01T18:33:32.852Z,86.14
2017-10-01T18:36:03.873Z,85.95
2017-10-01T18:38:31.810Z,85.86
2017-10-01T18:41:01.190Z,85.70
2017-10-01T18:43:27.510Z,85.96
2017-10-01T18:45:54.222Z,85.85
2017-10-01T18:48:22.375Z,85.84
2017-10-01T18:50:54.869Z,85.70
2017-10-01T18:53:22.109Z,86.70
2017-10-01T18:55:49.022Z,87.77
2017-10-01T18:58:18.563Z,88.16
2017-10-01T19:00:47.467Z,88.48
2017-10-01T19:03:16.407Z,88.74
2017-10-01T19:05:43.429Z,88.90
2017-10-01T19:08:09.949Z,88.49
2017-10-01T19:10:37.802Z,88.42
2017-10-01T19:13:04.505Z,88.58
2017-10-01T19:15:31.481Z,88.58
2017-10-01T19:17:57.995Z,88.51
2017-10-01T19:20:30.154Z,88.73
2017-10-01T19:22:58.075Z,88.81
2017-10-01T19:25:25.607Z,88.81
2017-10-01T19:27:51.971Z,88.37
2017-10-01T19:30:22.254Z,87.68
2017-10-01T19:35:39.243Z,87.78
2017-10-01T19:40:53.574Z,88.00
2017-10-01T20:09:46.388Z,88.75
2017-10-01T20:20:07.737Z,90.82
2017-10-01T20:22:35.048Z,90.63
2017-10-01T20:25:02.413Z,91.17
2017-10-01T20:27:28.711Z,91.30
2017-10-01T20:29:58.908Z,91.23
2017-10-01T20:32:25.491Z,91.07
2017-10-01T20:34:56.657Z,91.18
2017-10-01T20:37:22.862Z,90.73
2017-10-01T20:39:49.061Z,90.86
2017-10-01T20:42:23.089Z,90.71
2017-10-01T20:44:53.827Z,90.88
2017-10-01T20:47:22.225Z,90.75
2017-10-01T20:49:50.926Z,90.73
2017-10-01T20:52:18.174Z,91.95
2017-10-01T20:54:55.455Z,91.82
2017-10-01T20:57:21.732Z,91.70
2017-10-01T20:59:55.901Z,91.23
2017-10-01T21:02:27.067Z,91.29
2017-10-01T21:04:55.323Z,91.33
2017-10-01T21:07:22.264Z,91.88
2017-10-01T21:09:54.752Z,91.87
2017-10-01T21:12:21.500Z,91.46
2017-10-01T21:14:51.812Z,91.85
2017-10-01T21:17:18.103Z,92.04
2017-10-01T21:19:46.091Z,92.19
2017-10-01T21:22:12.810Z,92.01
2017-10-01T21:24:39.148Z,91.92
2017-10-01T21:27:06.252Z,91.61
2017-10-01T21:29:34.460Z,91.65
2017-10-01T21:32:04.418Z,91.47
2017-10-01T21:34:30.686Z,91.38
2017-10-01T21:36:58.345Z,91.28
2017-10-01T21:39:24.634Z,90.89
2017-10-01T21:41:50.982Z,91.02
2017-10-01T21:44:18.502Z,90.94
2017-10-01T21:46:45.095Z,91.06
2017-10-01T21:49:15.632Z,91.59
2017-10-01T21:51:42.862Z,91.15
2017-10-01T21:54:09.203Z,91.70
2017-10-01T21:56:39.643Z,91.56
2017-10-01T21:59:07.493Z,91.77
2017-10-01T22:01:33.719Z,91.67
2017-10-01T22:04:02.130Z,91.42
2017-10-01T22:06:29.046Z,91.45
2017-10-01T22:08:59.577Z,91.00
2017-10-01T22:11:35.124Z,90.96
2017-10-01T22:14:01.426Z,90.96
2017-10-01T22:16:27.686Z,91.28
2017-10-01T22:18:57.503Z,91.12
2017-10-01T22:21:23.811Z,91.10
2017-10-01T22:23:51.305Z,90.86
2017-10-01T22:26:19.254Z,90.73
2017-10-01T22:28:47.614Z,91.08
2017-10-01T22:31:14.611Z,91.66
2017-10-01T22:33:41.088Z,91.50
2017-10-01T22:36:07.293Z,90.40
2017-10-01T22:38:34.180Z,91.41
2017-10-01T22:41:06.172Z,91.24
2017-10-01T22:43:36.008Z,91.22
2017-10-01T22:46:06.021Z,91.61
2017-10-01T22:48:32.943Z,92.13
2017-10-01T22:51:02.715Z,92.21
2017-10-01T22:53:37.575Z,92.24
2017-10-01T22:56:04.551Z,92.25
2017-10-01T22:58:30.795Z,92.53
2017-10-01T23:00:57.420Z,92.25
2017-10-01T23:03:27.941Z,91.97
2017-10-01T23:05:56.287Z,91.66
2017-10-01T23:08:24.805Z,91.98
2017-10-01T23:10:59.343Z,92.69
2017-10-01T23:13:27.618Z,92.24
2017-10-01T23:15:57.924Z,92.41
2017-10-01T23:18:24.159Z,92.75
2017-10-01T23:20:50.994Z,92.56
2017-10-01T23:23:21.235Z,92.52
2017-10-01T23:25:50.039Z,92.24
2017-10-01T23:28:17.188Z,92.32
2017-10-01T23:30:50.273Z,92.15
2017-10-01T23:33:17.674Z,91.79
2017-10-01T23:35:45.275Z,92.69
2017-10-01T23:38:13.677Z,92.52
2017-10-01T23:40:40.187Z,92.50
2017-10-01T23:43:06.925Z,92.56
2017-10-01T23:45:36.963Z,92.38
2017-10-01T23:48:08.716Z,92.09
2017-10-01T23:50:35.776Z,92.09
2017-10-01T23:53:03.898Z,92.03
2017-10-01T23:55:31.820Z,92.17
2017-10-01T23:57:59.283Z,92.98
